Time;durP1;ratioP1;P1;durP2;ratioP2;P2;SDS_P1;SDS_P2;PMS_P1;PMS_P2;Temp;Humidity;BMP_temperature;BMP_pressure;BME280_temperature;BME280_humidity;BME280_pressure;Samples;Min_cycle;Max_cycle;Signal;HPM_P1;HPM_P2
2023/09/23 00:02:18;;;;;;;1.95;1.05;;;12.90;99.90;;;;;;4990570;28;20049;-65
2023/09/23 00:04:44;;;;;;;0.85;0.85;;;12.90;99.90;;;;;;5005139;28;20153;-65
2023/09/23 00:07:10;;;;;;;1.75;0.90;;;12.90;99.90;;;;;;5006072;28;20539;-65
2023/09/23 00:09:36;;;;;;;1.02;0.90;;;12.90;99.90;;;;;;5007310;28;20497;-65
2023/09/23 00:12:03;;;;;;;0.65;0.65;;;12.90;99.90;;;;;;5005049;28;20120;-65
2023/09/23 00:14:29;;;;;;;1.48;0.88;;;12.90;99.90;;;;;;5006630;28;20050;-65
2023/09/23 00:16:55;;;;;;;0.60;0.60;;;12.80;99.90;;;;;;4994936;28;20108;-65
2023/09/23 00:19:21;;;;;;;1.08;0.60;;;12.80;99.90;;;;;;5007076;28;20046;-66
2023/09/23 00:21:48;;;;;;;0.90;0.40;;;12.80;99.90;;;;;;5006896;28;20373;-65
2023/09/23 00:24:17;;;;;;;1.05;0.70;;;12.80;99.90;;;;;;5005748;28;20089;-65
2023/09/23 00:26:43;;;;;;;0.47;0.47;;;12.70;99.90;;;;;;5005196;28;20847;-65
2023/09/23 00:29:11;;;;;;;0.90;0.43;;;12.70;99.90;;;;;;5004526;28;20398;-65
2023/09/23 00:31:37;;;;;;;2.45;1.15;;;12.70;99.90;;;;;;5003081;28;20042;-65
2023/09/23 00:34:03;;;;;;;1.05;0.50;;;12.70;99.90;;;;;;4998461;28;20046;-66
2023/09/23 00:36:30;;;;;;;1.15;0.70;;;12.70;99.90;;;;;;5006694;28;20085;-66
2023/09/23 00:38:56;;;;;;;2.05;0.90;;;12.60;99.90;;;;;;4998216;28;20635;-65
2023/09/23 00:41:25;;;;;;;0.70;0.40;;;12.60;99.90;;;;;;5005467;28;20128;-65
2023/09/23 00:43:51;;;;;;;3.53;0.70;;;12.60;99.90;;;;;;5006673;28;20077;-65
2023/09/23 00:46:22;;;;;;;2.42;0.60;;;12.60;99.90;;;;;;4988252;28;20192;-66
2023/09/23 00:48:48;;;;;;;0.68;0.40;;;12.60;99.90;;;;;;4994320;28;20451;-66
2023/09/23 00:51:15;;;;;;;0.40;0.40;;;12.60;99.90;;;;;;5006637;28;20108;-66
2023/09/23 00:53:42;;;;;;;0.68;0.68;;;12.60;99.90;;;;;;5010106;28;20404;-65
2023/09/23 00:56:08;;;;;;;3.28;0.50;;;12.60;99.90;;;;;;5010072;28;20049;-66
2023/09/23 00:58:38;;;;;;;1.05;0.52;;;12.60;99.90;;;;;;5001251;28;20131;-66
2023/09/23 01:01:05;;;;;;;4.22;0.60;;;12.50;99.90;;;;;;5010894;28;20100;-66
2023/09/23 01:03:31;;;;;;;1.05;0.50;;;12.50;99.90;;;;;;5023891;28;20498;-65
2023/09/23 01:06:04;;;;;;;0.70;0.70;;;12.50;99.90;;;;;;5028603;28;20124;-66
2023/09/23 01:08:30;;;;;;;1.65;0.77;;;12.50;99.90;;;;;;5009669;28;20099;-65
2023/09/23 01:10:56;;;;;;;2.53;0.75;;;12.50;99.90;;;;;;5028391;28;20042;-65
2023/09/23 01:13:29;;;;;;;0.73;0.60;;;12.50;99.90;;;;;;5028212;28;20181;-65
2023/09/23 01:15:56;;;;;;;0.50;0.43;;;12.50;99.90;;;;;;5029219;28;20042;-66
2023/09/23 01:18:22;;;;;;;2.80;0.60;;;12.50;99.90;;;;;;5029970;28;20046;-66
2023/09/23 01:20:51;;;;;;;1.35;0.57;;;12.50;99.90;;;;;;5007651;28;20050;-66
2023/09/23 01:23:17;;;;;;;1.08;0.50;;;12.50;99.90;;;;;;5029333;28;20045;-65
2023/09/23 01:25:43;;;;;;;0.40;0.40;;;12.50;99.90;;;;;;5010110;28;20049;-65
2023/09/23 01:28:12;;;;;;;1.08;0.50;;;12.40;99.90;;;;;;5029758;28;20088;-66
2023/09/23 01:30:40;;;;;;;0.47;0.40;;;12.40;99.90;;;;;;5028432;28;20056;-65
2023/09/23 01:33:12;;;;;;;1.70;0.73;;;12.40;99.90;;;;;;5025908;28;20045;-65
2023/09/23 01:35:38;;;;;;;0.68;0.40;;;12.40;99.90;;;;;;5022302;28;20052;-65
2023/09/23 01:38:05;;;;;;;1.30;0.40;;;12.40;99.90;;;;;;5027989;28;20033;-65
2023/09/23 01:40:31;;;;;;;1.52;0.47;;;12.40;99.90;;;;;;5029676;28;20418;-66
2023/09/23 01:43:01;;;;;;;0.77;0.40;;;12.40;99.90;;;;;;5026967;28;21238;-66
2023/09/23 01:45:28;;;;;;;0.60;0.32;;;12.40;99.90;;;;;;5004413;28;20058;-65
2023/09/23 01:47:57;;;;;;;6.53;0.43;;;12.30;99.90;;;;;;5028066;28;20045;-65
2023/09/23 01:50:24;;;;;;;0.45;0.45;;;12.30;99.90;;;;;;5016097;28;20124;-66
2023/09/23 01:52:51;;;;;;;0.40;0.40;;;12.30;99.90;;;;;;5029026;28;20046;-66
2023/09/23 01:55:17;;;;;;;1.00;0.30;;;12.30;99.90;;;;;;5027453;28;20033;-66
2023/09/23 01:57:43;;;;;;;1.05;0.50;;;12.30;99.90;;;;;;5011212;28;20499;-66
2023/09/23 02:00:22;;;;;;;0.68;0.60;;;12.30;99.90;;;;;;5027630;28;20090;-65
2023/09/23 02:02:49;;;;;;;3.30;0.45;;;12.30;99.90;;;;;;5027934;28;20696;-65
2023/09/23 02:05:18;;;;;;;0.50;0.40;;;12.30;99.90;;;;;;5017125;28;20115;-65
2023/09/23 02:07:46;;;;;;;1.65;0.75;;;12.30;99.90;;;;;;5010130;28;20053;-65
2023/09/23 02:10:15;;;;;;;2.83;0.47;;;12.30;99.90;;;;;;5028173;28;20049;-65
2023/09/23 02:12:44;;;;;;;1.58;0.70;;;12.20;99.90;;;;;;5026235;28;20037;-66
2023/09/23 02:15:14;;;;;;;0.65;0.65;;;12.20;99.90;;;;;;5029397;28;20038;-65
2023/09/23 02:17:49;;;;;;;1.27;0.80;;;12.30;99.90;;;;;;5010363;28;20075;-65
2023/09/23 02:20:20;;;;;;;1.10;0.70;;;12.20;99.90;;;;;;5007509;28;20095;-65
2023/09/23 02:22:53;;;;;;;0.60;0.60;;;12.20;99.90;;;;;;5016912;28;20044;-65
2023/09/23 02:25:20;;;;;;;0.80;0.70;;;12.20;99.90;;;;;;5028276;28;20048;-65
2023/09/23 02:27:46;;;;;;;1.23;0.73;;;12.20;99.90;;;;;;5022869;28;20515;-65
2023/09/23 02:30:13;;;;;;;0.90;0.60;;;12.20;99.90;;;;;;5024434;28;20613;-65
2023/09/23 02:32:41;;;;;;;1.02;0.80;;;12.20;99.90;;;;;;5024815;28;20128;-65
2023/09/23 02:35:11;;;;;;;1.05;0.60;;;12.20;99.90;;;;;;5026472;28;20536;-65
2023/09/23 02:37:45;;;;;;;0.60;0.60;;;12.20;99.90;;;;;;5029043;28;20569;-65
2023/09/23 02:40:12;;;;;;;0.63;0.60;;;12.20;99.90;;;;;;5014654;28;20107;-65
2023/09/23 02:42:51;;;;;;;0.63;0.63;;;12.20;99.90;;;;;;5027784;28;20041;-65
2023/09/23 02:45:17;;;;;;;0.60;0.60;;;12.20;99.90;;;;;;4997424;28;20053;-66
2023/09/23 02:47:44;;;;;;;0.70;0.50;;;12.20;99.90;;;;;;5009318;28;20100;-65
2023/09/23 02:50:10;;;;;;;1.13;0.50;;;12.20;99.90;;;;;;5022672;28;20710;-65
2023/09/23 02:52:40;;;;;;;0.50;0.40;;;12.20;99.90;;;;;;5016859;28;20104;-65
2023/09/23 02:55:19;;;;;;;2.58;0.60;;;12.10;99.90;;;;;;5007132;28;20636;-65
2023/09/23 02:57:49;;;;;;;0.82;0.47;;;12.10;99.90;;;;;;5019407;28;20044;-65
2023/09/23 03:00:17;;;;;;;0.45;0.30;;;12.10;99.90;;;;;;5026433;28;20038;-65
2023/09/23 03:02:53;;;;;;;1.25;0.60;;;12.10;99.90;;;;;;5020266;28;20084;-65
2023/09/23 03:05:25;;;;;;;1.27;0.60;;;12.10;99.90;;;;;;5023451;28;20759;-65
2023/09/23 03:07:51;;;;;;;0.47;0.47;;;12.10;99.90;;;;;;5027747;28;20038;-65
2023/09/23 03:10:19;;;;;;;1.60;0.68;;;12.00;99.90;;;;;;5027006;28;20354;-65
2023/09/23 03:12:51;;;;;;;0.70;0.70;;;12.00;99.90;;;;;;5026714;28;20049;-65
2023/09/23 03:15:20;;;;;;;1.10;0.43;;;12.10;99.90;;;;;;5028028;28;20399;-66
2023/09/23 03:17:50;;;;;;;2.60;0.50;;;12.00;99.90;;;;;;5025977;28;20037;-65
2023/09/23 03:20:21;;;;;;;1.45;0.70;;;12.00;99.90;;;;;;5010135;28;20095;-65
2023/09/23 03:22:49;;;;;;;5.82;0.77;;;12.10;99.90;;;;;;5007375;28;20041;-66
2023/09/23 03:25:20;;;;;;;0.50;0.50;;;12.10;99.90;;;;;;5016851;28;20044;-66
2023/09/23 03:27:50;;;;;;;2.08;0.82;;;12.10;99.90;;;;;;5026971;28;20057;-65
2023/09/23 03:30:17;;;;;;;0.60;0.60;;;12.00;99.90;;;;;;5026844;28;20404;-65
2023/09/23 03:32:44;;;;;;;0.70;0.70;;;12.10;99.90;;;;;;5027904;28;20045;-66
2023/09/23 03:35:13;;;;;;;0.55;0.50;;;12.10;99.90;;;;;;5024884;28;20160;-65
2023/09/23 03:37:39;;;;;;;2.78;0.90;;;12.10;99.90;;;;;;5027809;28;20052;-65
2023/09/23 03:40:07;;;;;;;1.27;0.63;;;12.10;99.90;;;;;;5025213;28;20381;-65
2023/09/23 03:42:34;;;;;;;0.75;0.73;;;12.00;99.90;;;;;;5027673;28;20053;-65
2023/09/23 03:45:00;;;;;;;0.52;0.52;;;12.00;99.90;;;;;;5020053;28;20044;-65
2023/09/23 03:47:25;;;;;;;0.65;0.65;;;12.00;99.90;;;;;;5026890;28;20614;-65
2023/09/23 03:49:51;;;;;;;1.13;0.70;;;11.90;99.90;;;;;;5027220;28;20061;-65
2023/09/23 03:52:17;;;;;;;0.70;0.70;;;11.80;99.90;;;;;;4996009;28;20041;-66
2023/09/23 03:54:43;;;;;;;0.95;0.90;;;11.90;99.90;;;;;;5023855;28;20034;-66
2023/09/23 03:57:08;;;;;;;1.45;0.95;;;11.80;99.90;;;;;;5025397;28;20776;-66
2023/09/23 03:59:36;;;;;;;0.77;0.77;;;11.80;99.90;;;;;;5009484;28;20042;-65
2023/09/23 04:02:01;;;;;;;1.02;0.93;;;11.70;99.90;;;;;;5007226;28;20045;-65
2023/09/23 04:04:27;;;;;;;1.13;1.02;;;11.70;99.90;;;;;;5009183;28;20049;-65
2023/09/23 04:06:53;;;;;;;6.18;1.00;;;11.70;99.90;;;;;;5026534;28;20053;-65
2023/09/23 04:09:18;;;;;;;2.28;1.08;;;11.60;99.90;;;;;;5024983;28;20044;-65
2023/09/23 04:11:46;;;;;;;1.90;1.25;;;11.70;99.90;;;;;;5009305;28;20136;-66
2023/09/23 04:14:12;;;;;;;1.17;1.08;;;11.60;99.90;;;;;;5025401;28;20045;-66
2023/09/23 04:16:37;;;;;;;2.85;1.58;;;11.60;99.90;;;;;;5005988;28;20115;-65
2023/09/23 04:19:03;;;;;;;2.15;1.33;;;11.60;99.90;;;;;;5008273;28;20131;-65
2023/09/23 04:21:31;;;;;;;1.38;1.33;;;11.50;99.90;;;;;;5027176;28;20050;-66
2023/09/23 04:24:00;;;;;;;3.53;1.60;;;11.50;99.90;;;;;;5008564;28;20131;-65
2023/09/23 04:26:26;;;;;;;1.50;1.37;;;11.50;99.90;;;;;;5028874;28;20033;-65
2023/09/23 04:28:52;;;;;;;2.03;1.55;;;11.50;99.90;;;;;;5012947;28;20045;-65
2023/09/23 04:31:18;;;;;;;1.38;1.27;;;11.50;99.90;;;;;;5028817;28;20049;-66
2023/09/23 04:33:45;;;;;;;1.63;1.52;;;11.40;99.90;;;;;;5031286;28;20038;-66
2023/09/23 04:36:12;;;;;;;1.98;1.55;;;11.50;99.90;;;;;;5028923;28;20064;-66
2023/09/23 04:38:38;;;;;;;2.08;1.80;;;11.40;99.90;;;;;;5030679;28;20107;-65
2023/09/23 04:41:05;;;;;;;1.88;1.70;;;11.50;99.90;;;;;;5014121;28;20050;-65
2023/09/23 04:43:31;;;;;;;2.00;1.90;;;11.50;99.90;;;;;;5030097;28;20557;-65
2023/09/23 04:45:57;;;;;;;1.98;1.88;;;11.40;99.90;;;;;;4996623;28;20045;-66
2023/09/23 04:48:26;;;;;;;2.00;1.50;;;11.40;99.90;;;;;;5028739;28;20069;-66
2023/09/23 04:50:55;;;;;;;2.17;1.98;;;11.40;99.90;;;;;;5009862;28;20050;-66
2023/09/23 04:53:21;;;;;;;3.63;2.03;;;11.40;99.90;;;;;;5028351;28;20046;-65
2023/09/23 04:55:47;;;;;;;1.92;1.80;;;11.40;99.90;;;;;;5012614;28;20888;-66
2023/09/23 04:58:13;;;;;;;1.60;1.52;;;11.40;99.90;;;;;;4994912;28;20463;-65
2023/09/23 05:00:39;;;;;;;4.05;2.13;;;11.40;99.90;;;;;;5011997;28;20508;-66
2023/09/23 05:03:08;;;;;;;4.07;1.88;;;11.50;99.90;;;;;;5029581;28;20046;-66
2023/09/23 05:05:35;;;;;;;3.03;1.75;;;11.40;99.90;;;;;;5028883;28;20045;-65
2023/09/23 05:08:06;;;;;;;1.88;1.77;;;11.30;99.90;;;;;;5030854;28;20051;-65
2023/09/23 05:10:32;;;;;;;4.43;2.10;;;11.40;99.90;;;;;;5025887;28;20057;-66
2023/09/23 05:12:58;;;;;;;1.90;1.80;;;11.40;99.90;;;;;;5030276;28;20874;-66
2023/09/23 05:15:24;;;;;;;2.40;2.00;;;11.40;99.90;;;;;;5028331;28;20049;-65
2023/09/23 05:17:52;;;;;;;2.45;2.25;;;11.40;99.90;;;;;;4995938;28;20522;-65
2023/09/23 05:20:25;;;;;;;2.35;2.15;;;11.40;99.90;;;;;;5010525;28;20049;-66
2023/09/23 05:22:51;;;;;;;4.15;2.33;;;11.40;99.90;;;;;;5027995;28;20048;-66
2023/09/23 05:25:17;;;;;;;2.85;2.00;;;11.40;99.90;;;;;;5011645;28;20060;-65
2023/09/23 05:27:43;;;;;;;1.88;1.77;;;11.40;99.90;;;;;;5028423;28;20057;-66
2023/09/23 05:30:11;;;;;;;2.47;2.28;;;11.40;99.90;;;;;;5029865;28;20046;-66
2023/09/23 05:32:37;;;;;;;2.70;2.50;;;11.30;99.90;;;;;;5027536;28;20045;-65
2023/09/23 05:35:10;;;;;;;3.78;2.08;;;11.30;99.90;;;;;;5029928;28;20045;-66
2023/09/23 05:37:38;;;;;;;2.10;2.00;;;11.20;99.90;;;;;;5028924;28;20046;-65
2023/09/23 05:40:37;;;;;;;3.80;2.30;;;11.30;99.90;;;;;;5028402;28;20041;-66
2023/09/23 05:42:56;;;;;;;2.15;2.03;;;11.20;99.90;;;;;;5026121;28;20064;-66
2023/09/23 05:45:25;;;;;;;2.53;2.33;;;11.20;99.90;;;;;;5027195;28;20484;-65
2023/09/23 05:47:54;;;;;;;2.33;2.13;;;11.30;99.90;;;;;;5011322;28;20459;-66
2023/09/23 05:50:20;;;;;;;4.20;2.60;;;11.30;99.90;;;;;;5013957;28;20073;-65
2023/09/23 05:52:47;;;;;;;2.45;2.30;;;11.30;99.90;;;;;;5028494;28;20045;-65
2023/09/23 05:55:14;;;;;;;2.90;2.70;;;11.30;99.90;;;;;;5011666;28;20049;-65
2023/09/23 05:57:42;;;;;;;2.08;1.98;;;11.30;99.90;;;;;;5028136;28;20041;-66
2023/09/23 06:00:11;;;;;;;2.38;2.17;;;11.40;99.90;;;;;;5010713;28;20057;-65
2023/09/23 06:02:38;;;;;;;2.95;2.65;;;11.30;99.90;;;;;;5007845;28;20127;-66
2023/09/23 06:05:03;;;;;;;2.90;2.70;;;11.30;99.90;;;;;;5023903;28;20148;-66
2023/09/23 06:07:31;;;;;;;3.75;2.92;;;11.40;99.90;;;;;;5012037;28;20133;-66
2023/09/23 06:09:59;;;;;;;2.70;2.50;;;11.40;99.90;;;;;;5029601;28;20103;-65
2023/09/23 06:12:31;;;;;;;2.60;2.42;;;11.40;99.90;;;;;;5028136;28;20042;-65
2023/09/23 06:15:01;;;;;;;3.22;3.00;;;11.50;99.90;;;;;;5008463;28;20479;-65
2023/09/23 06:17:28;;;;;;;2.45;2.25;;;11.50;99.90;;;;;;5028469;28;20055;-66
2023/09/23 06:19:57;;;;;;;3.10;2.55;;;11.40;99.90;;;;;;5027175;28;20053;-65
2023/09/23 06:22:23;;;;;;;2.60;2.40;;;11.40;99.90;;;;;;5028531;28;20041;-65
2023/09/23 06:24:52;;;;;;;2.97;2.63;;;11.50;99.90;;;;;;5004757;28;20080;-65
2023/09/23 06:27:19;;;;;;;2.60;2.33;;;11.50;99.90;;;;;;5009599;28;20055;-66
2023/09/23 06:29:45;;;;;;;4.10;2.60;;;11.40;99.90;;;;;;5027579;28;20112;-65
2023/09/23 06:32:12;;;;;;;2.80;2.60;;;11.40;99.90;;;;;;5027434;28;20052;-66
2023/09/23 06:34:38;;;;;;;2.95;2.72;;;11.40;99.90;;;;;;5010060;28;20041;-65
2023/09/23 06:37:04;;;;;;;2.95;2.33;;;11.40;99.90;;;;;;4994843;28;20534;-66
2023/09/23 06:39:30;;;;;;;3.67;2.60;;;11.40;99.90;;;;;;5002099;28;20050;-66
2023/09/23 06:41:56;;;;;;;3.20;2.90;;;11.40;99.90;;;;;;5025329;28;20091;-66
2023/09/23 06:44:23;;;;;;;3.42;2.75;;;11.50;99.90;;;;;;5011138;28;20052;-66
2023/09/23 06:46:50;;;;;;;3.70;3.33;;;11.50;99.90;;;;;;5009617;28;20053;-65
2023/09/23 06:49:17;;;;;;;3.97;2.65;;;11.50;99.90;;;;;;5018554;28;20080;-66
2023/09/23 06:51:42;;;;;;;3.67;3.38;;;11.60;99.90;;;;;;5007102;28;20122;-66
2023/09/23 06:54:08;;;;;;;4.13;3.83;;;11.60;99.90;;;;;;5024890;28;20484;-66
2023/09/23 06:56:37;;;;;;;4.65;4.25;;;11.80;99.90;;;;;;5017802;28;20042;-66
2023/09/23 06:59:03;;;;;;;6.10;4.07;;;11.90;99.90;;;;;;4989820;28;20480;-66
2023/09/23 07:01:29;;;;;;;6.22;4.53;;;11.90;99.90;;;;;;5016849;28;20135;-66
2023/09/23 07:03:55;;;;;;;7.03;5.65;;;11.90;99.90;;;;;;5022414;28;20088;-66
2023/09/23 07:06:20;;;;;;;5.88;5.28;;;11.90;99.90;;;;;;5021996;28;20500;-66
2023/09/23 07:08:46;;;;;;;6.97;5.43;;;11.90;99.90;;;;;;5016302;28;20033;-65
2023/09/23 07:11:15;;;;;;;6.90;6.20;;;12.00;99.90;;;;;;5026562;28;20060;-66
2023/09/23 07:13:41;;;;;;;9.88;7.35;;;12.00;99.90;;;;;;5027538;28;20060;-66
2023/09/23 07:16:12;;;;;;;8.73;6.80;;;12.00;99.90;;;;;;5014506;28;20431;-66
2023/09/23 07:18:38;;;;;;;7.20;6.45;;;12.10;99.90;;;;;;5015093;28;20493;-66
2023/09/23 07:21:03;;;;;;;7.85;6.45;;;12.10;99.90;;;;;;5021944;28;20042;-66
2023/09/23 07:23:29;;;;;;;7.10;6.28;;;12.10;99.90;;;;;;5010008;28;20053;-66
2023/09/23 07:25:54;;;;;;;7.38;6.25;;;12.20;99.90;;;;;;5005167;28;20048;-66
2023/09/23 07:28:20;;;;;;;9.65;6.43;;;12.10;99.90;;;;;;4998064;28;20466;-66
2023/09/23 07:30:46;;;;;;;6.82;6.00;;;12.10;99.90;;;;;;5026683;28;20041;-66
2023/09/23 07:33:12;;;;;;;8.77;6.45;;;12.20;99.90;;;;;;5021187;28;20045;-66
2023/09/23 07:35:37;;;;;;;9.93;7.30;;;12.20;99.90;;;;;;5009865;28;20139;-66
2023/09/23 07:38:03;;;;;;;9.88;7.07;;;12.30;99.90;;;;;;5010634;28;20707;-66
2023/09/23 07:40:30;;;;;;;9.27;7.25;;;12.40;99.90;;;;;;5009367;28;20045;-66
2023/09/23 07:42:56;;;;;;;14.63;8.65;;;12.40;99.90;;;;;;4996035;28;20037;-66
2023/09/23 07:45:21;;;;;;;12.05;8.07;;;12.50;99.90;;;;;;4991636;28;20046;-66
2023/09/23 07:47:48;;;;;;;8.20;6.78;;;12.50;99.90;;;;;;5001122;28;20479;-66
2023/09/23 07:50:14;;;;;;;10.75;7.25;;;12.60;99.90;;;;;;5007524;28;20052;-66
2023/09/23 07:52:40;;;;;;;10.85;8.68;;;12.80;99.90;;;;;;5021291;28;20049;-66
2023/09/23 07:55:06;;;;;;;10.55;8.30;;;12.90;99.90;;;;;;5021525;28;20298;-66
2023/09/23 07:57:32;;;;;;;9.73;8.50;;;13.10;99.90;;;;;;5021927;28;20114;-66
2023/09/23 07:59:58;;;;;;;9.30;7.85;;;13.30;99.90;;;;;;4998706;28;20056;-66
2023/09/23 08:02:24;;;;;;;13.60;8.77;;;13.40;99.90;;;;;;5023879;28;20507;-66
2023/09/23 08:04:50;;;;;;;11.63;8.73;;;13.60;99.90;;;;;;5021025;28;20053;-66
2023/09/23 08:07:16;;;;;;;17.25;8.38;;;13.50;99.90;;;;;;5008829;28;20049;-66
2023/09/23 08:09:42;;;;;;;14.88;8.45;;;13.60;99.90;;;;;;5022658;28;20037;-66
2023/09/23 08:12:09;;;;;;;10.20;7.85;;;13.60;99.90;;;;;;5019119;28;20088;-66
2023/09/23 08:14:36;;;;;;;9.57;8.13;;;13.70;99.90;;;;;;5027218;28;20057;-66
2023/09/23 08:17:02;;;;;;;12.98;8.90;;;13.70;99.90;;;;;;5024287;28;20566;-66
2023/09/23 08:19:28;;;;;;;10.60;8.50;;;13.80;99.90;;;;;;5009288;28;20087;-66
2023/09/23 08:21:53;;;;;;;10.05;7.75;;;13.80;99.90;;;;;;5021015;28;20105;-66
2023/09/23 08:24:20;;;;;;;8.73;7.25;;;13.90;99.90;;;;;;5026453;28;20271;-66
2023/09/23 08:26:46;;;;;;;11.02;7.88;;;13.80;99.90;;;;;;5026471;28;20556;-66
2023/09/23 08:29:12;;;;;;;9.85;8.15;;;14.00;99.90;;;;;;5024035;28;20163;-66
2023/09/23 08:31:39;;;;;;;10.35;8.10;;;14.10;99.90;;;;;;5004362;28;20145;-66
2023/09/23 08:34:09;;;;;;;9.32;7.53;;;14.20;99.90;;;;;;5007114;28;20057;-66
2023/09/23 08:36:35;;;;;;;10.18;6.63;;;14.20;99.90;;;;;;4996690;28;20038;-66
2023/09/23 08:39:05;;;;;;;7.20;6.45;;;14.20;99.90;;;;;;4995016;28;20124;-66
2023/09/23 08:41:30;;;;;;;10.38;7.60;;;14.30;99.90;;;;;;5015573;28;20049;-66
2023/09/23 08:44:00;;;;;;;9.52;7.78;;;14.40;99.90;;;;;;5015257;28;20037;-66
2023/09/23 08:46:27;;;;;;;9.10;7.05;;;14.40;99.90;;;;;;5013443;28;20488;-66
2023/09/23 08:48:55;;;;;;;7.82;6.57;;;14.40;99.90;;;;;;5021175;28;20045;-66
2023/09/23 08:51:23;;;;;;;9.23;6.88;;;14.50;99.90;;;;;;5019283;28;20527;-66
2023/09/23 08:53:51;;;;;;;9.88;7.50;;;14.60;99.90;;;;;;5005877;28;20431;-66
2023/09/23 08:56:17;;;;;;;11.18;8.00;;;14.80;99.90;;;;;;5025152;28;20050;-66
2023/09/23 08:58:43;;;;;;;11.82;6.93;;;15.00;99.90;;;;;;4997643;28;20037;-66
2023/09/23 09:01:10;;;;;;;8.27;6.35;;;15.20;99.90;;;;;;5008360;28;20088;-66
2023/09/23 09:03:37;;;;;;;8.50;7.03;;;15.30;99.90;;;;;;5020714;28;20049;-66
2023/09/23 09:06:03;;;;;;;7.80;6.28;;;15.50;99.90;;;;;;5007478;28;20196;-66
2023/09/23 09:08:31;;;;;;;10.18;6.65;;;15.60;99.90;;;;;;5016863;28;20522;-66
2023/09/23 09:10:59;;;;;;;9.55;6.47;;;15.80;99.90;;;;;;5020731;28;20054;-66
2023/09/23 09:13:25;;;;;;;8.18;6.22;;;15.80;99.90;;;;;;5002029;28;20041;-66
2023/09/23 09:15:51;;;;;;;10.35;6.32;;;15.80;99.90;;;;;;4980213;28;20496;-66
2023/09/23 09:18:17;;;;;;;9.25;6.43;;;15.70;99.90;;;;;;5012706;28;20049;-66
2023/09/23 09:20:42;;;;;;;6.97;5.57;;;15.60;99.90;;;;;;5018613;28;20045;-66
2023/09/23 09:23:15;;;;;;;6.13;5.45;;;15.50;99.90;;;;;;4995736;28;20148;-66
2023/09/23 09:25:47;;;;;;;9.48;5.35;;;15.50;99.90;;;;;;4993195;28;20204;-67
2023/09/23 09:28:13;;;;;;;5.72;4.93;;;15.50;99.90;;;;;;5013481;28;20125;-66
2023/09/23 09:30:39;;;;;;;7.28;5.20;;;15.50;99.90;;;;;;4999027;28;20177;-66
2023/09/23 09:33:08;;;;;;;6.13;4.78;;;15.50;99.90;;;;;;5024534;28;20045;-66
2023/09/23 09:35:33;;;;;;;6.35;4.93;;;15.80;99.90;;;;;;5015106;28;20046;-66
2023/09/23 09:38:07;;;;;;;6.75;4.82;;;16.00;99.90;;;;;;5015026;28;20610;-66
2023/09/23 09:40:33;;;;;;;5.30;4.75;;;16.40;99.90;;;;;;5018726;28;20053;-66
2023/09/23 09:43:00;;;;;;;5.63;4.25;;;16.50;99.90;;;;;;4979947;28;20430;-66
2023/09/23 09:45:34;;;;;;;7.60;5.35;;;16.70;99.90;;;;;;5025163;28;20297;-66
2023/09/23 09:48:03;;;;;;;4.55;3.78;;;16.80;99.90;;;;;;5014904;28;20085;-66
2023/09/23 09:50:30;;;;;;;6.25;3.67;;;16.90;99.90;;;;;;5001842;28;20403;-66
2023/09/23 09:52:56;;;;;;;4.65;3.80;;;16.90;99.90;;;;;;4996158;28;20041;-65
2023/09/23 09:55:24;;;;;;;4.47;3.42;;;17.00;99.90;;;;;;4993474;28;20041;-66
2023/09/23 09:57:54;;;;;;;3.53;2.85;;;17.00;99.90;;;;;;5018120;28;20451;-65
2023/09/23 10:00:33;;;;;;;;;;;17.00;99.90;;;;;;5016721;28;20049;-65
2023/09/23 10:03:01;;;;;;;4.70;2.53;;;16.90;99.90;;;;;;5010792;28;19925;-65
2023/09/23 10:05:42;;;;;;;4.25;2.42;;;16.80;99.90;;;;;;5015155;28;20451;-65
2023/09/23 10:08:13;;;;;;;2.30;2.10;;;16.90;99.90;;;;;;5017885;28;20046;-66
2023/09/23 10:10:44;;;;;;;2.40;2.20;;;16.90;99.90;;;;;;5023063;28;20338;-66
2023/09/23 10:13:14;;;;;;;2.35;1.88;;;16.80;99.90;;;;;;4993323;28;20050;-66
2023/09/23 10:15:40;;;;;;;2.20;1.55;;;16.70;99.90;;;;;;5028071;28;20037;-65
2023/09/23 10:18:19;;;;;;;4.40;2.00;;;16.70;99.90;;;;;;5027546;28;20064;-65
2023/09/23 10:20:50;;;;;;;2.00;1.40;;;16.60;99.90;;;;;;5010942;28;20072;-65
2023/09/23 10:23:20;;;;;;;5.25;1.63;;;16.70;99.90;;;;;;5009230;28;20053;-65
2023/09/23 10:25:52;;;;;;;2.75;1.40;;;16.80;99.90;;;;;;5010116;28;20147;-65
2023/09/23 10:28:22;;;;;;;2.30;1.50;;;16.80;99.90;;;;;;5016487;28;20082;-65
2023/09/23 10:31:03;;;;;;;2.42;1.30;;;16.70;99.90;;;;;;4999831;28;20049;-65
2023/09/23 10:33:31;;;;;;;2.42;1.33;;;16.60;99.90;;;;;;5024013;28;20050;-65
2023/09/23 10:36:00;;;;;;;2.80;1.23;;;16.40;99.90;;;;;;5021934;28;20405;-65
2023/09/23 10:38:34;;;;;;;1.30;1.10;;;16.30;99.90;;;;;;5013986;28;20060;-65
2023/09/23 10:41:01;;;;;;;1.17;1.08;;;16.50;99.90;;;;;;5010347;28;20053;-65
2023/09/23 10:43:27;;;;;;;3.40;1.38;;;16.70;99.90;;;;;;5009152;28;20044;-65
2023/09/23 10:45:58;;;;;;;2.53;1.10;;;16.90;99.90;;;;;;5017251;28;20042;-65
2023/09/23 10:48:25;;;;;;;3.13;1.52;;;17.00;99.90;;;;;;5012369;28;20052;-67
2023/09/23 10:50:52;;;;;;;1.45;1.20;;;17.10;99.90;;;;;;4991577;28;20480;-65
2023/09/23 10:53:30;;;;;;;3.42;1.20;;;17.10;99.90;;;;;;5009093;28;20043;-65
2023/09/23 10:55:56;;;;;;;4.25;1.20;;;17.10;99.90;;;;;;5008458;28;20129;-65
2023/09/23 10:58:22;;;;;;;4.03;1.23;;;17.10;99.90;;;;;;5012475;28;20045;-65
2023/09/23 11:00:50;;;;;;;1.95;1.05;;;17.10;99.90;;;;;;5007744;28;20053;-65
2023/09/23 11:03:19;;;;;;;3.25;1.13;;;17.10;99.90;;;;;;5013671;28;20125;-65
2023/09/23 11:05:46;;;;;;;4.45;1.23;;;17.10;99.90;;;;;;5007321;28;20131;-65
2023/09/23 11:08:14;;;;;;;2.80;1.63;;;17.10;99.90;;;;;;5010569;28;20060;-66
2023/09/23 11:10:45;;;;;;;2.90;1.27;;;17.10;99.90;;;;;;5004665;28;20503;-65
2023/09/23 11:13:13;;;;;;;5.22;1.30;;;17.00;99.90;;;;;;5027239;28;20045;-66
2023/09/23 11:15:40;;;;;;;2.78;1.10;;;16.90;99.90;;;;;;5010564;28;20103;-66
2023/09/23 11:18:11;;;;;;;3.05;1.17;;;16.70;99.90;;;;;;5026496;28;20045;-67
2023/09/23 11:20:42;;;;;;;5.10;1.42;;;16.60;99.90;;;;;;5013069;28;20041;-66
2023/09/23 11:23:10;;;;;;;2.47;1.20;;;16.50;99.90;;;;;;4998771;28;20049;-67
2023/09/23 11:25:38;;;;;;;3.55;1.15;;;16.40;99.90;;;;;;5027720;28;20053;-67
2023/09/23 11:28:05;;;;;;;3.15;1.10;;;16.30;99.90;;;;;;5008914;28;20047;-67
2023/09/23 11:30:31;;;;;;;3.70;1.20;;;16.30;99.90;;;;;;5025371;28;20060;-67
2023/09/23 11:32:57;;;;;;;1.83;1.23;;;16.20;99.90;;;;;;5009558;28;20049;-67
2023/09/23 11:35:23;;;;;;;3.00;1.40;;;16.10;99.90;;;;;;5025660;28;20483;-67
2023/09/23 11:37:50;;;;;;;2.30;1.13;;;16.10;99.90;;;;;;5027916;28;20132;-67
2023/09/23 11:40:16;;;;;;;2.17;1.20;;;16.00;99.90;;;;;;5022000;28;20548;-66
2023/09/23 11:42:42;;;;;;;1.55;1.00;;;16.00;99.90;;;;;;5027814;28;20455;-67
2023/09/23 11:45:09;;;;;;;2.72;0.82;;;15.90;99.90;;;;;;5007801;28;20048;-66
2023/09/23 11:47:36;;;;;;;1.42;0.73;;;15.80;99.90;;;;;;5027646;28;20041;-66
2023/09/23 11:50:03;;;;;;;2.67;1.23;;;15.80;99.90;;;;;;4992800;28;20590;-65
2023/09/23 11:52:31;;;;;;;2.40;0.93;;;15.80;99.90;;;;;;5008363;28;20088;-66
2023/09/23 11:54:56;;;;;;;4.57;1.00;;;15.80;99.90;;;;;;5027271;28;20081;-66
2023/09/23 11:57:22;;;;;;;2.00;0.90;;;15.70;99.90;;;;;;5025443;28;20080;-66
2023/09/23 11:59:48;;;;;;;3.67;1.02;;;15.70;99.90;;;;;;5027125;28;20115;-66
2023/09/23 12:02:14;;;;;;;1.05;1.05;;;15.70;99.90;;;;;;5023775;28;20076;-66
2023/09/23 12:04:40;;;;;;;3.15;1.00;;;15.60;99.90;;;;;;5027459;28;20562;-67
2023/09/23 12:07:06;;;;;;;1.92;0.98;;;15.60;99.90;;;;;;5026551;28;20065;-66
2023/09/23 12:09:35;;;;;;;2.97;1.20;;;15.50;99.90;;;;;;5008413;28;20088;-66
2023/09/23 12:12:01;;;;;;;1.63;1.08;;;15.60;99.90;;;;;;5026378;28;20049;-66
2023/09/23 12:14:28;;;;;;;5.28;0.95;;;15.60;99.90;;;;;;5024976;28;20042;-66
2023/09/23 12:16:54;;;;;;;1.40;0.88;;;15.60;99.90;;;;;;5027222;28;20049;-66
2023/09/23 12:19:19;;;;;;;2.13;0.90;;;15.80;99.90;;;;;;5007654;28;20038;-66
2023/09/23 12:21:45;;;;;;;1.48;0.75;;;15.80;99.90;;;;;;5022602;28;20050;-66
2023/09/23 12:24:11;;;;;;;2.85;0.85;;;15.90;99.90;;;;;;5020946;28;20112;-66
2023/09/23 12:26:36;;;;;;;1.23;0.77;;;15.80;99.90;;;;;;5026571;28;20048;-66
2023/09/23 12:29:02;;;;;;;3.00;0.68;;;15.90;99.90;;;;;;5027411;28;20055;-66
2023/09/23 12:31:28;;;;;;;1.95;0.85;;;15.90;99.90;;;;;;5006932;28;20498;-67
2023/09/23 12:33:54;;;;;;;1.55;1.00;;;15.80;99.90;;;;;;5020040;28;20049;-66
2023/09/23 12:36:20;;;;;;;5.30;1.05;;;15.70;99.90;;;;;;5020449;28;20113;-66
2023/09/23 12:38:46;;;;;;;2.10;0.95;;;15.60;99.90;;;;;;5027247;28;20507;-67
2023/09/23 12:41:14;;;;;;;4.45;0.98;;;15.60;99.90;;;;;;5025518;28;20053;-66
2023/09/23 12:43:40;;;;;;;1.73;0.82;;;15.50;99.90;;;;;;5025725;28;20128;-65
2023/09/23 12:46:06;;;;;;;2.28;0.98;;;15.40;99.90;;;;;;5027277;28;20128;-65
2023/09/23 12:48:31;;;;;;;2.53;0.80;;;15.30;99.90;;;;;;5011610;28;20049;-65